Terminal Aerodrome Forecast
Issued by NWS Caribou, ME

Home | Current Version | Previous Version | Text Only | Print | Product List | Glossary On
Versions: 1 2 3 4 5 6 7 8 9 10 11 12 13 14
000
FTUS41 KCAR 250520
TAFCAR
TAF
KCAR 250520Z 2506/2606 00000KT P6SM BKN250
     FM251500 18006KT P6SM SCT050
     FM252100 18006KT P6SM VCSH BKN050
     FM260200 19005KT 5SM -SHRA BR VCTS OVC020CB=

USA.gov is the U.S. government's official web portal to all federal, state and local government web resources and services.